| weather.gov |
| Lake Wales Municipal Airport |
| metric |
| D a t e | Time (est) |
Wind (mph) | Vis. (mi.) | Weather | Sky Cond. | Temperature (ºF) | Relative Humidity | Wind Chill (°F) | Heat Index (°F) | Pressure | Precipitation (in.) | ||||||
|---|---|---|---|---|---|---|---|---|---|---|---|---|---|---|---|---|---|
| Air | Dwpt | 6 hour | altimeter (in) | sea level (mb) | 1 hr | 3 hr | 6 hr | ||||||||||
| Max. | Min. | ||||||||||||||||
| 08 | 23:15 | SE 7 | 10.00 | Fair | CLR | 66 | 59 | 78% | NA | NA | 30.17 | NA | |||||
| 08 | 22:55 | E 9 | 10.00 | A Few Clouds | FEW042 | 66 | 59 | 78% | NA | NA | 30.17 | NA | |||||
| 08 | 22:35 | E 8 | 10.00 | Partly Cloudy | FEW038 SCT045 | 66 | 59 | 78% | NA | NA | 30.17 | NA | |||||
| 08 | 22:15 | E 8 | 10.00 | A Few Clouds | FEW036 FEW043 FEW049 | 66 | 59 | 78% | NA | NA | 30.17 | NA | |||||
| 08 | 21:35 | E 7 | 10.00 | Fair | CLR | 66 | 61 | 83% | NA | NA | 30.17 | NA | |||||
| 08 | 21:15 | E 9 G 15 | 10.00 | A Few Clouds | FEW043 FEW050 | 66 | 61 | 83% | NA | NA | 30.17 | NA | |||||
| 08 | 20:55 | E 10 | 10.00 | Mostly Cloudy | SCT042 BKN050 BKN060 | 68 | 61 | 78% | NA | NA | 30.17 | NA | |||||
| 08 | 20:15 | E 7 | 10.00 | Fair | CLR | 68 | 59 | 73% | NA | NA | 30.19 | NA | |||||
| 08 | 19:55 | E 8 | 10.00 | A Few Clouds | FEW050 FEW055 | 68 | 59 | 73% | NA | NA | 30.17 | NA | |||||
| 08 | 19:15 | E 7 | 10.00 | Mostly Cloudy | FEW050 BKN070 | 68 | 59 | 73% | NA | NA | 30.18 | NA | |||||
| 08 | 18:55 | SE 7 | 10.00 | Overcast | OVC070 | 68 | 59 | 73% | NA | NA | 30.18 | NA | |||||
| 08 | 18:15 | SE 6 | 10.00 | Mostly Cloudy | FEW049 SCT055 BKN070 | 68 | 59 | 73% | NA | NA | 30.16 | NA | |||||
| 08 | 17:55 | E 6 | 10.00 | Mostly Cloudy | SCT055 BKN070 | 70 | 59 | 69% | NA | NA | 30.16 | NA | |||||
| 08 | 17:35 | SE 6 | 10.00 | Mostly Cloudy | SCT060 BKN070 | 70 | 57 | 64% | NA | NA | 30.16 | NA | |||||
| 08 | 17:15 | SE 5 | 10.00 | Overcast | BKN060 OVC070 | 72 | 57 | 61% | NA | NA | 30.17 | NA | |||||
| 08 | 16:55 | E 6 | 10.00 | Overcast | OVC070 | 72 | 57 | 61% | NA | NA | 30.16 | NA | |||||
| 08 | 16:35 | SE 7 | 9.00 | Overcast | OVC060 | 72 | 57 | 61% | NA | NA | 30.16 | NA | |||||
| 08 | 16:15 | SE 6 | 9.00 | Mostly Cloudy | BKN065 | 73 | 57 | 57% | NA | NA | 30.15 | NA | |||||
| 08 | 15:55 | SE 8 | 9.00 | Overcast | OVC070 | 73 | 57 | 57% | NA | NA | 30.14 | NA | |||||
| 08 | 15:35 | SE 8 | 10.00 | Overcast | OVC070 | 73 | 57 | 57% | NA | NA | 30.14 | NA | |||||
| 08 | 15:15 | SE 7 | 10.00 | Overcast | OVC070 | 73 | 59 | 61% | NA | NA | 30.14 | NA | |||||
| 08 | 14:55 | SE 8 | 10.00 | Mostly Cloudy | BKN065 | 75 | 59 | 57% | NA | NA | 30.14 | NA | |||||
| 08 | 14:15 | SE 8 | 10.00 | A Few Clouds | FEW065 | 75 | 59 | 57% | NA | NA | 30.14 | NA | |||||
| 08 | 13:55 | S 7 | 10.00 | Fair | CLR | 77 | 57 | 51% | NA | 79 | 30.15 | NA | |||||
| 08 | 13:35 | Vrbl 6 G 13 | 10.00 | Fair | CLR | 77 | 59 | 54% | NA | 79 | 30.15 | NA | |||||
| 08 | 13:15 | E 8 | 10.00 | Fair | CLR | 77 | 57 | 51% | NA | 79 | 30.16 | NA | |||||
| 08 | 12:55 | SE 6 G 15 | 10.00 | Fair | CLR | 75 | 57 | 54% | NA | NA | 30.17 | NA | |||||
| 08 | 12:15 | E 7 G 13 | 10.00 | Fair | CLR | 75 | 57 | 54% | NA | NA | 30.19 | NA | |||||
| 08 | 11:55 | E 8 | 10.00 | Fair | CLR | 75 | 57 | 54% | NA | NA | 30.20 | NA | |||||
| 08 | 11:15 | E 7 | 10.00 | A Few Clouds | FEW047 | 73 | 57 | 57% | NA | NA | 30.22 | NA | |||||
| 08 | 10:15 | NE 5 | 10.00 | Partly Cloudy | SCT055 | 70 | 59 | 69% | NA | NA | 30.23 | NA | |||||
| 08 | 09:35 | E 5 | 10.00 | Partly Cloudy | SCT050 | 66 | 59 | 78% | NA | NA | 30.23 | NA | |||||
| 08 | 09:15 | E 6 | 10.00 | Mostly Cloudy | BKN050 | 66 | 59 | 78% | NA | NA | 30.23 | NA | |||||
| 08 | 08:55 | E 3 | 10.00 | Mostly Cloudy | BKN050 | 64 | 59 | 83% | NA | NA | 30.23 | NA | |||||
| 08 | 08:35 | Calm | 9.00 | Overcast | OVC050 | 61 | 59 | 94% | NA | NA | 30.22 | NA | |||||
| 08 | 08:15 | Calm | 10.00 | Overcast | OVC050 | 57 | 57 | 100% | NA | NA | 30.21 | NA | |||||
| 08 | 07:55 | Calm | 9.00 | Overcast | OVC050 | 55 | 55 | 100% | NA | NA | 30.20 | NA | |||||
| 08 | 07:35 | Calm | 9.00 | Mostly Cloudy | BKN049 | 54 | 54 | 100% | NA | NA | 30.20 | NA | |||||
| 08 | 07:15 | NE 3 | 9.00 | Partly Cloudy | SCT047 | 54 | 54 | 100% | NA | NA | 30.19 | NA | |||||
| 08 | 06:55 | Calm | 10.00 | Partly Cloudy | FEW032 SCT041 SCT047 | 52 | 52 | 100% | NA | NA | 30.19 | NA | |||||
| 08 | 06:35 | Calm | 10.00 | Mostly Cloudy | BKN033 BKN041 | 55 | 55 | 100% | NA | NA | 30.18 | NA | |||||
| 08 | 06:15 | Calm | 10.00 | Mostly Cloudy | BKN034 BKN044 | 55 | 55 | 100% | NA | NA | 30.18 | NA | |||||
| 08 | 05:55 | Calm | 10.00 | Mostly Cloudy | BKN032 BKN042 | 55 | 55 | 100% | NA | NA | 30.17 | NA | |||||
| 08 | 05:35 | NE 3 | 10.00 | Partly Cloudy | SCT037 SCT043 | 55 | 55 | 100% | NA | NA | 30.16 | NA | |||||
| 08 | 05:15 | E 3 | 4.00 | Fog/Mist | BKN037 | 50 | 50 | 100% | NA | NA | 30.15 | NA | |||||
| 08 | 04:55 | NE 3 | 10.00 | Mostly Cloudy | BKN038 | 54 | 54 | 100% | NA | NA | 30.15 | NA | |||||
| 08 | 04:35 | Calm | 9.00 | Mostly Cloudy | BKN039 | 52 | 52 | 100% | NA | NA | 30.16 | NA | |||||
| 08 | 04:15 | Calm | 10.00 | Partly Cloudy | SCT037 | 52 | 52 | 100% | NA | NA | 30.16 | NA | |||||
| 08 | 03:55 | Calm | 8.00 | A Few Clouds | FEW038 | 52 | 52 | 100% | NA | NA | 30.16 | NA | |||||
| 08 | 03:15 | Calm | 10.00 | Mostly Cloudy | BKN039 | 52 | 52 | 100% | NA | NA | 30.17 | NA | |||||
| 08 | 02:55 | Calm | 9.00 | Mostly Cloudy | BKN039 | 52 | 52 | 100% | NA | NA | 30.17 | NA | |||||
| 08 | 02:15 | Calm | 10.00 | A Few Clouds | FEW039 | 54 | 54 | 100% | NA | NA | 30.17 | NA | |||||
| 08 | 01:55 | Calm | 10.00 | A Few Clouds | FEW040 | 54 | 54 | 100% | NA | NA | 30.18 | NA | |||||
| 08 | 01:35 | Calm | 10.00 | A Few Clouds | FEW042 | 54 | 54 | 100% | NA | NA | 30.18 | NA | |||||
| 08 | 01:15 | Calm | 10.00 | A Few Clouds | FEW042 | 54 | 54 | 100% | NA | NA | 30.18 | NA | |||||
| 08 | 00:55 | Calm | 10.00 | A Few Clouds | FEW041 | 55 | 54 | 94% | NA | NA | 30.19 | NA | |||||
| 08 | 00:35 | Calm | 10.00 | Partly Cloudy | SCT038 SCT044 | 57 | 54 | 88% | NA | NA | 30.18 | NA | |||||
| 08 | 00:15 | NE 6 | 10.00 | Mostly Cloudy | BKN037 | 57 | 54 | 88% | NA | NA | 30.17 | NA | |||||
| 07 | 23:55 | E 5 | 10.00 | Mostly Cloudy | FEW029 BKN037 | 57 | 55 | 94% | NA | NA | 30.18 | NA | |||||
| 07 | 23:35 | NE 6 | 10.00 | Mostly Cloudy | BKN036 BKN042 | 57 | 54 | 88% | NA | NA | 30.19 | NA | |||||
| 07 | 23:15 | Calm | 10.00 | Mostly Cloudy | FEW033 BKN041 | 57 | 54 | 88% | NA | NA | 30.19 | NA | |||||
| 07 | 22:55 | Calm | 10.00 | Partly Cloudy | FEW032 SCT040 | 57 | 54 | 88% | NA | NA | 30.21 | NA | |||||
| 07 | 22:35 | E 5 | 10.00 | Partly Cloudy | FEW030 SCT040 | 57 | 54 | 88% | NA | NA | 30.20 | NA | |||||
| 07 | 22:15 | E 6 | 10.00 | Mostly Cloudy | FEW031 BKN041 | 57 | 54 | 88% | NA | NA | 30.20 | NA | |||||
| 07 | 21:55 | E 6 | 10.00 | Mostly Cloudy | FEW032 BKN040 | 57 | 54 | 88% | NA | NA | 30.21 | NA | |||||
| 07 | 21:35 | E 7 | 10.00 | Overcast | OVC040 | 57 | 54 | 88% | NA | NA | 30.20 | NA | |||||
| 07 | 21:15 | E 6 | 10.00 | Overcast | SCT032 OVC041 | 57 | 54 | 88% | NA | NA | 30.21 | NA | |||||
| 07 | 20:35 | E 9 | 10.00 | Overcast | OVC037 | 59 | 54 | 82% | NA | NA | 30.21 | NA | |||||
| 07 | 19:55 | E 8 | 10.00 | Overcast | FEW030 BKN039 OVC045 | 61 | 54 | 77% | NA | NA | 30.21 | NA | |||||
| 07 | 19:35 | E 8 | 10.00 | Overcast | FEW030 OVC039 | 61 | 54 | 77% | NA | NA | 30.20 | NA | |||||
| 07 | 19:15 | NE 6 | 10.00 | Overcast | BKN038 OVC047 | 59 | 52 | 77% | NA | NA | 30.20 | NA | |||||
| 07 | 18:55 | NE 5 | 10.00 | Overcast | OVC044 | 59 | 52 | 77% | NA | NA | 30.20 | NA | |||||
| 07 | 18:35 | NE 6 | 10.00 | Overcast | BKN043 OVC048 | 61 | 52 | 72% | NA | NA | 30.19 | NA | |||||
| 07 | 18:15 | NE 5 | 10.00 | Overcast | OVC046 | 61 | 52 | 72% | NA | NA | 30.19 | NA | |||||
| 07 | 17:55 | NE 3 | 10.00 | Mostly Cloudy | BKN046 | 63 | 52 | 68% | NA | NA | 30.18 | NA | |||||
| 07 | 17:35 | NE 3 | 10.00 | Fair | CLR | 64 | 52 | 64% | NA | NA | 30.18 | NA | |||||
| 07 | 17:15 | NE 3 | 10.00 | Fair | CLR | 64 | 52 | 64% | NA | NA | 30.18 | NA | |||||
| 07 | 16:35 | NE 5 | 10.00 | Fair | CLR | 68 | 52 | 56% | NA | NA | 30.18 | NA | |||||
| 07 | 16:15 | E 7 | 10.00 | Fair | CLR | 68 | 52 | 56% | NA | NA | 30.18 | NA | |||||
| 07 | 15:55 | E 8 | 10.00 | Fair | CLR | 68 | 50 | 53% | NA | NA | 30.18 | NA | |||||
| 07 | 15:35 | E 7 | 10.00 | Fair | CLR | 68 | 52 | 56% | NA | NA | 30.17 | NA | |||||
| 07 | 15:15 | NE 7 | 10.00 | Fair | CLR | 70 | 50 | 50% | NA | NA | 30.17 | NA | |||||
| 07 | 14:55 | E 7 | 10.00 | Fair | CLR | 70 | 50 | 50% | NA | NA | 30.17 | NA | |||||
| 07 | 14:35 | E 7 G 14 | 9.00 | Fair | CLR | 70 | 50 | 50% | NA | NA | 30.17 | NA | |||||
| 07 | 14:15 | NE 6 | 10.00 | Fair | CLR | 70 | 50 | 50% | NA | NA | 30.18 | NA | |||||
| 07 | 13:55 | NE 7 | 10.00 | Fair | CLR | 70 | 50 | 50% | NA | NA | 30.18 | NA | |||||
| 07 | 12:55 | NE 8 | 10.00 | Fair | CLR | 70 | 50 | 50% | NA | NA | 30.20 | NA | |||||
| 07 | 12:35 | NE 8 | 10.00 | Fair | CLR | 68 | 48 | 49% | NA | NA | 30.21 | NA | |||||
| 07 | 12:15 | NE 6 | 10.00 | Fair | CLR | 68 | 48 | 49% | NA | NA | 30.23 | NA | |||||
| 07 | 11:55 | Vrbl 5 | 10.00 | Fair | CLR | 68 | 48 | 49% | NA | NA | 30.24 | NA | |||||
| 07 | 11:35 | Vrbl 6 | 10.00 | Fair | CLR | 66 | 48 | 52% | NA | NA | 30.25 | NA | |||||
| 07 | 11:15 | NE 7 G 13 | 10.00 | Fair | CLR | 66 | 46 | 49% | NA | NA | 30.26 | NA | |||||
| 07 | 10:55 | N 9 | 10.00 | Fair | CLR | 64 | 45 | 49% | NA | NA | 30.26 | NA | |||||
| 07 | 10:35 | N 10 | 10.00 | Fair | CLR | 63 | 45 | 52% | NA | NA | 30.27 | NA | |||||
| 07 | 10:15 | N 8 | 10.00 | Fair | CLR | 63 | 45 | 52% | NA | NA | 30.27 | NA | |||||
| 07 | 09:55 | N 9 | 10.00 | Fair | CLR | 61 | 45 | 55% | NA | NA | 30.27 | NA | |||||
| 07 | 09:35 | N 10 | 10.00 | Fair | CLR | 59 | 43 | 55% | NA | NA | 30.27 | NA | |||||
| 07 | 09:15 | N 8 | 10.00 | Fair | CLR | 57 | 45 | 63% | NA | NA | 30.27 | NA | |||||
| 07 | 08:35 | N 9 | 10.00 | Fair | CLR | 54 | 43 | 67% | NA | NA | 30.26 | NA | |||||
| 07 | 08:15 | N 6 | 10.00 | Fair | CLR | 52 | 43 | 72% | NA | NA | 30.26 | NA | |||||
| 07 | 07:55 | N 6 | 10.00 | Fair | CLR | 50 | 43 | 76% | 48 | NA | 30.25 | NA | |||||
| 07 | 07:35 | N 3 | 10.00 | Fair | CLR | 48 | 41 | 76% | NA | NA | 30.25 | NA | |||||
| 07 | 07:15 | N 5 | 10.00 | Fair | CLR | 46 | 41 | 82% | 44 | NA | 30.25 | NA | |||||
| 07 | 06:35 | N 6 | 10.00 | Partly Cloudy | SCT033 | 48 | 41 | 76% | 45 | NA | 30.24 | NA | |||||
| 07 | 06:15 | N 8 | 10.00 | Mostly Cloudy | BKN033 BKN039 | 48 | 41 | 76% | 44 | NA | 30.24 | NA | |||||
| 07 | 05:35 | N 6 | 10.00 | Overcast | OVC034 | 48 | 43 | 82% | 45 | NA | 30.22 | NA | |||||
| 07 | 05:15 | N 5 | 10.00 | Overcast | OVC033 | 48 | 43 | 82% | 46 | NA | 30.22 | NA | |||||
| 07 | 04:55 | N 5 | 10.00 | Mostly Cloudy | BKN033 | 45 | 43 | 93% | 42 | NA | 30.22 | NA | |||||
| 07 | 04:35 | NW 5 | 10.00 | Overcast | OVC033 | 45 | 45 | 100% | 42 | NA | 30.22 | NA | |||||
| 07 | 04:15 | Calm | 9.00 | Overcast | OVC032 | 43 | 43 | 100% | NA | NA | 30.22 | NA | |||||
| 07 | 03:55 | Calm | 10.00 | Overcast | OVC034 | 43 | 41 | 93% | NA | NA | 30.22 | NA | |||||
| 07 | 03:35 | NW 3 | 10.00 | Overcast | OVC035 | 46 | 43 | 87% | NA | NA | 30.22 | NA | |||||
| 07 | 03:15 | NW 5 | 10.00 | Overcast | OVC036 | 46 | 43 | 87% | 44 | NA | 30.21 | NA | |||||
| 07 | 02:55 | NW 5 | 10.00 | Mostly Cloudy | BKN036 | 45 | 43 | 93% | 42 | NA | 30.22 | NA | |||||
| 07 | 02:35 | NW 5 | 10.00 | Mostly Cloudy | BKN035 | 45 | 41 | 87% | 42 | NA | 30.22 | NA | |||||
| 07 | 02:15 | NW 5 | 10.00 | Partly Cloudy | SCT035 | 45 | 43 | 93% | 42 | NA | 30.22 | NA | |||||
| 07 | 01:55 | NW 3 | 10.00 | A Few Clouds | FEW034 | 43 | 41 | 93% | NA | NA | 30.22 | NA | |||||
| 07 | 00:35 | Calm | 10.00 | A Few Clouds | FEW032 | 39 | 39 | 100% | NA | NA | 30.22 | NA | |||||
| 06 | 23:55 | Calm | 10.00 | Fair | CLR | 41 | 39 | 93% | NA | NA | 30.23 | NA | |||||
| 06 | 23:35 | Calm | 10.00 | Fair | CLR | 48 | 43 | 82% | NA | NA | 30.23 | NA | |||||
| 06 | 23:15 | N 3 | 10.00 | Fair | CLR | 46 | 43 | 87% | NA | NA | 30.23 | NA | |||||
| 06 | 22:55 | N 3 | 10.00 | Fair | CLR | 46 | 43 | 87% | NA | NA | 30.23 | NA | |||||
| 06 | 22:35 | N 3 | 10.00 | Fair | CLR | 45 | 41 | 87% | NA | NA | 30.23 | NA | |||||
| 06 | 22:15 | Calm | 10.00 | Fair | CLR | 45 | 41 | 87% | NA | NA | 30.22 | NA | |||||
| 06 | 21:55 | Calm | 10.00 | Fair | CLR | 46 | 43 | 87% | NA | NA | 30.22 | NA | |||||
| 06 | 21:35 | Calm | 10.00 | Fair | CLR | 46 | 39 | 76% | NA | NA | 30.22 | NA | |||||
| 06 | 21:15 | Calm | 10.00 | Fair | CLR | 50 | 39 | 67% | NA | NA | 30.21 | NA | |||||
| 06 | 20:55 | NE 5 | 10.00 | Fair | CLR | 50 | 39 | 67% | 48 | NA | 30.21 | NA | |||||
| 06 | 20:35 | NE 5 | 10.00 | Fair | CLR | 48 | 39 | 71% | 46 | NA | 30.22 | NA | |||||
| 06 | 20:15 | Calm | 10.00 | Fair | CLR | 46 | 41 | 82% | NA | NA | 30.21 | NA | |||||
| 06 | 19:55 | Calm | 10.00 | Fair | CLR | 48 | 39 | 71% | NA | NA | 30.20 | NA | |||||
| 06 | 19:15 | Calm | 10.00 | Fair | CLR | 54 | 39 | 58% | NA | NA | 30.19 | NA | |||||
| 06 | 18:55 | Calm | 10.00 | Fair | CLR | 54 | 37 | 54% | NA | NA | 30.18 | NA | |||||
| 06 | 18:35 | Calm | 10.00 | Fair | CLR | 54 | 37 | 54% | NA | NA | 30.18 | NA | |||||
| 06 | 18:15 | N 3 | 10.00 | Fair | CLR | 55 | 37 | 51% | NA | NA | 30.17 | NA | |||||
| 06 | 17:55 | N 6 | 10.00 | Fair | CLR | 55 | 37 | 51% | NA | NA | 30.16 | NA | |||||
| 06 | 17:15 | NE 10 | 10.00 | Fair | CLR | 59 | 36 | 42% | NA | NA | 30.15 | NA | |||||
| 06 | 16:55 | N 10 | 10.00 | Fair | CLR | 61 | 36 | 39% | NA | NA | 30.14 | NA | |||||
| 06 | 16:35 | N 9 G 16 | 10.00 | Fair | CLR | 61 | 34 | 36% | NA | NA | 30.13 | NA | |||||
| 06 | 16:15 | N 8 | 10.00 | Fair | CLR | 63 | 34 | 34% | NA | NA | 30.12 | NA | |||||
| 06 | 15:55 | N 13 | 10.00 | Fair | CLR | 63 | 32 | 32% | NA | NA | 30.11 | NA | |||||
| 06 | 15:15 | N 10 G 16 | 10.00 | Fair | CLR | 64 | 30 | 28% | NA | NA | 30.11 | NA | |||||
| 06 | 14:55 | N 13 | 10.00 | Fair | CLR | 66 | 30 | 26% | NA | NA | 30.11 | NA | |||||
| 06 | 14:35 | N 12 | 10.00 | Fair | CLR | 66 | 28 | 24% | NA | NA | 30.10 | NA | |||||
| 06 | 14:15 | NW 14 | 10.00 | Fair | CLR | 66 | 27 | 22% | NA | NA | 30.10 | NA | |||||
| 06 | 13:55 | N 12 | 10.00 | Fair | CLR | 66 | 28 | 24% | NA | NA | 30.10 | NA | |||||
| 06 | 13:15 | N 13 | 10.00 | Fair | CLR | 68 | 30 | 24% | NA | NA | 30.11 | NA | |||||
| 06 | 12:55 | N 17 | 10.00 | Fair | CLR | 66 | 28 | 24% | NA | NA | 30.12 | NA | |||||
| 06 | 12:35 | N 16 | 10.00 | Fair | CLR | 66 | 30 | 26% | NA | NA | 30.13 | NA | |||||
| 06 | 12:15 | NW 14 G 20 | 10.00 | Fair | CLR | 66 | 32 | 28% | NA | NA | 30.14 | NA | |||||
| 06 | 11:55 | N 12 G 18 | 10.00 | Fair | CLR | 66 | 34 | 30% | NA | NA | 30.15 | NA | |||||
| 06 | 11:15 | N 14 | 10.00 | Fair | CLR | 64 | 36 | 34% | NA | NA | 30.16 | NA | |||||
| 06 | 10:55 | N 14 G 21 | 10.00 | Fair | CLR | 64 | 34 | 32% | NA | NA | 30.17 | NA | |||||
| 06 | 10:35 | N 14 G 20 | 10.00 | Fair | CLR | 63 | 36 | 37% | NA | NA | 30.17 | NA | |||||
| 06 | 10:15 | N 17 | 10.00 | Fair | CLR | 63 | 36 | 37% | NA | NA | 30.18 | NA | |||||
| 06 | 09:55 | N 14 | 10.00 | Fair | CLR | 61 | 39 | 45% | NA | NA | 30.18 | NA | |||||
| 06 | 09:35 | N 15 G 21 | 10.00 | Fair | CLR | 61 | 41 | 48% | NA | NA | 30.18 | NA | |||||
| 06 | 09:15 | N 13 | 10.00 | Fair | CLR | 61 | 41 | 48% | NA | NA | 30.18 | NA | |||||
| 06 | 08:55 | N 10 | 10.00 | Fair | CLR | 59 | 43 | 55% | NA | NA | 30.17 | NA | |||||
| 06 | 08:35 | N 7 G 18 | 10.00 | Fair | CLR | 59 | 43 | 55% | NA | NA | 30.17 | NA | |||||
| 06 | 08:15 | N 10 | 10.00 | Fair | CLR | 57 | 43 | 59% | NA | NA | 30.18 | NA | |||||
| 06 | 07:55 | N 9 | 10.00 | Fair | CLR | 57 | 43 | 59% | NA | NA | 30.17 | NA | |||||
| 06 | 07:35 | N 8 | 10.00 | Fair | CLR | 55 | 43 | 63% | NA | NA | 30.16 | NA | |||||
| 06 | 07:15 | N 6 | 10.00 | Fair | CLR | 55 | 43 | 63% | NA | NA | 30.15 | NA | |||||
| 06 | 06:55 | N 8 G 15 | 10.00 | Fair | CLR | 57 | 43 | 59% | NA | NA | 30.15 | NA | |||||
| 06 | 06:35 | N 12 | 10.00 | Fair | CLR | 57 | 45 | 63% | NA | NA | 30.14 | NA | |||||
| 06 | 06:15 | N 8 G 16 | 10.00 | Fair | CLR | 57 | 45 | 63% | NA | NA | 30.13 | NA | |||||
| 06 | 05:55 | N 8 | 10.00 | Fair | CLR | 55 | 45 | 67% | NA | NA | 30.12 | NA | |||||
| 06 | 05:15 | N 9 G 15 | 10.00 | Fair | CLR | 57 | 45 | 63% | NA | NA | 30.10 | NA | |||||
| 06 | 04:35 | N 9 | 10.00 | Fair | CLR | 57 | 48 | 72% | NA | NA | 30.10 | NA | |||||
| 06 | 04:15 | N 8 | 10.00 | Fair | CLR | 57 | 48 | 72% | NA | NA | 30.09 | NA | |||||
| 06 | 03:55 | N 7 | 10.00 | Fair | CLR | 57 | 50 | 77% | NA | NA | 30.09 | NA | |||||
| 06 | 03:35 | N 8 | 10.00 | Fair | CLR | 57 | 50 | 77% | NA | NA | 30.09 | NA | |||||
| 06 | 03:15 | Calm | 10.00 | Fair | CLR | 52 | 48 | 88% | NA | NA | 30.08 | NA | |||||
| 06 | 02:55 | NW 3 | 10.00 | Fair | CLR | 52 | 48 | 88% | NA | NA | 30.08 | NA | |||||
| 06 | 02:35 | W 3 | 10.00 | Fair | CLR | 52 | 48 | 88% | NA | NA | 30.09 | NA | |||||
| 06 | 02:15 | NW 5 | 10.00 | Fair | CLR | 52 | 46 | 82% | NA | NA | 30.08 | NA | |||||
| 06 | 01:55 | NW 5 | 10.00 | Fair | CLR | 52 | 46 | 82% | NA | NA | 30.09 | NA | |||||
| 06 | 01:15 | W 3 | 10.00 | Fair | CLR | 50 | 45 | 82% | NA | NA | 30.09 | NA | |||||
| 06 | 00:55 | W 3 | 10.00 | Fair | CLR | 50 | 45 | 82% | NA | NA | 30.09 | NA | |||||
| 06 | 00:35 | W 3 | 10.00 | Fair | CLR | 50 | 45 | 82% | NA | NA | 30.08 | NA | |||||
| 06 | 00:15 | Calm | 10.00 | Fair | CLR | 50 | 45 | 82% | NA | NA | 30.09 | NA | |||||
| 05 | 23:55 | W 3 | 10.00 | Fair | CLR | 52 | 45 | 77% | NA | NA | 30.10 | NA | |||||
| D a t e | Time (est) |
Wind (mph) | Vis. (mi.) | Weather | Sky Cond. | Air | Dwpt | Max. | Min. | Relative Humidity | Wind Chill (°F) | Heat Index (°F) | altimeter (in.) | sea level (mb) |
1 hr | 3 hr | 6 hr |
| 6 hour | |||||||||||||||||
| Temperature (ºF) | Pressure | Precipitation (in.) | |||||||||||||||
| National Weather Service Southern Region Headquarters Fort Worth, Texas Disclaimer |
Last Modified: Febuary, 7 2012 Privacy Policy |
|